Terminal Aerodrome Forecast
Issued by NWS

Home | Current Version | Previous Version | Text Only | Print | Product List | Glossary On
Versions: 1 2 3 4 5 6 7 8 9 10 11 12
000
FTUS45 KRIW 261723
TAFCPR
TAF
KCPR 261723Z 2618/2718 VRB05KT P6SM SKC
     FM270000 11011KT P6SM SCT110
     FM270500 VRB06KT P6SM SCT110 WS015/18030KT
     FM271000 21010G15KT P6SM SCT100 BKN150
     FM271400 22014G20KT P6SM SCT100 BKN150=

USA.gov is the U.S. government's official web portal to all federal, state and local government web resources and services.